sensor_id;sensor_type;location;lat;lon;timestamp;temperature;humidity
69359;HTU21D;56520;49.066;8.660;2023-09-19T00:01:33;16.69;91.13
69359;HTU21D;56520;49.066;8.660;2023-09-19T00:03:58;16.66;91.26
69359;HTU21D;56520;49.066;8.660;2023-09-19T00:06:25;16.63;91.22
69359;HTU21D;56520;49.066;8.660;2023-09-19T00:08:51;16.61;91.26
69359;HTU21D;56520;49.066;8.660;2023-09-19T00:11:17;16.59;91.33
69359;HTU21D;56520;49.066;8.660;2023-09-19T00:13:42;16.56;91.38
69359;HTU21D;56520;49.066;8.660;2023-09-19T00:16:09;16.51;91.47
69359;HTU21D;56520;49.066;8.660;2023-09-19T00:18:39;16.50;91.50
69359;HTU21D;56520;49.066;8.660;2023-09-19T00:21:05;16.47;91.56
69359;HTU21D;56520;49.066;8.660;2023-09-19T00:23:30;16.47;91.63
69359;HTU21D;56520;49.066;8.660;2023-09-19T00:26:00;16.48;91.40
69359;HTU21D;56520;49.066;8.660;2023-09-19T00:28:26;16.54;91.04
69359;HTU21D;56520;49.066;8.660;2023-09-19T00:30:52;16.59;90.79
69359;HTU21D;56520;49.066;8.660;2023-09-19T00:33:20;16.63;90.63
69359;HTU21D;56520;49.066;8.660;2023-09-19T00:35:49;16.65;90.47
69359;HTU21D;56520;49.066;8.660;2023-09-19T00:38:14;16.69;90.37
69359;HTU21D;56520;49.066;8.660;2023-09-19T00:40:49;16.72;90.44
69359;HTU21D;56520;49.066;8.660;2023-09-19T00:43:16;16.75;90.14
69359;HTU21D;56520;49.066;8.660;2023-09-19T00:45:44;16.76;90.09
69359;HTU21D;56520;49.066;8.660;2023-09-19T00:48:10;16.78;89.79
69359;HTU21D;56520;49.066;8.660;2023-09-19T00:50:36;16.78;89.83
69359;HTU21D;56520;49.066;8.660;2023-09-19T00:53:02;16.79;89.54
69359;HTU21D;56520;49.066;8.660;2023-09-19T00:55:36;16.79;89.64
69359;HTU21D;56520;49.066;8.660;2023-09-19T00:58:03;16.77;89.83
69359;HTU21D;56520;49.066;8.660;2023-09-19T01:00:28;16.76;89.88
69359;HTU21D;56520;49.066;8.660;2023-09-19T01:02:54;16.76;89.89
69359;HTU21D;56520;49.066;8.660;2023-09-19T01:05:19;16.76;89.91
69359;HTU21D;56520;49.066;8.660;2023-09-19T01:07:45;16.75;89.88
69359;HTU21D;56520;49.066;8.660;2023-09-19T01:10:15;16.73;89.81
69359;HTU21D;56520;49.066;8.660;2023-09-19T01:12:51;16.71;89.86
69359;HTU21D;56520;49.066;8.660;2023-09-19T01:18:43;16.69;89.77
69359;HTU21D;56520;49.066;8.660;2023-09-19T01:27:25;16.80;89.05
69359;HTU21D;56520;49.066;8.660;2023-09-19T01:30:21;16.78;89.17
69359;HTU21D;56520;49.066;8.660;2023-09-19T01:32:49;16.80;89.09
69359;HTU21D;56520;49.066;8.660;2023-09-19T01:35:17;16.85;88.84
69359;HTU21D;56520;49.066;8.660;2023-09-19T01:37:43;16.95;88.06
69359;HTU21D;56520;49.066;8.660;2023-09-19T01:40:12;16.96;88.28
69359;HTU21D;56520;49.066;8.660;2023-09-19T01:51:09;17.07;87.37
69359;HTU21D;56520;49.066;8.660;2023-09-19T01:56:01;17.13;87.45
69359;HTU21D;56520;49.066;8.660;2023-09-19T02:00:58;17.18;87.57
69359;HTU21D;56520;49.066;8.660;2023-09-19T02:03:25;17.19;87.16
69359;HTU21D;56520;49.066;8.660;2023-09-19T02:05:52;17.28;86.24
69359;HTU21D;56520;49.066;8.660;2023-09-19T02:08:20;17.31;86.22
69359;HTU21D;56520;49.066;8.660;2023-09-19T02:10:45;17.37;85.97
69359;HTU21D;56520;49.066;8.660;2023-09-19T02:13:16;17.34;86.12
69359;HTU21D;56520;49.066;8.660;2023-09-19T02:15:42;17.36;86.12
69359;HTU21D;56520;49.066;8.660;2023-09-19T02:18:09;17.30;86.40
69359;HTU21D;56520;49.066;8.660;2023-09-19T02:20:34;17.29;86.38
69359;HTU21D;56520;49.066;8.660;2023-09-19T02:23:00;17.33;86.00
69359;HTU21D;56520;49.066;8.660;2023-09-19T02:25:26;17.34;86.19
69359;HTU21D;56520;49.066;8.660;2023-09-19T02:27:52;17.31;86.08
69359;HTU21D;56520;49.066;8.660;2023-09-19T02:30:19;17.30;86.39
69359;HTU21D;56520;49.066;8.660;2023-09-19T02:32:46;17.26;86.68
69359;HTU21D;56520;49.066;8.660;2023-09-19T02:35:11;17.28;86.48
69359;HTU21D;56520;49.066;8.660;2023-09-19T02:37:37;17.29;86.62
69359;HTU21D;56520;49.066;8.660;2023-09-19T02:40:03;17.29;86.53
69359;HTU21D;56520;49.066;8.660;2023-09-19T02:42:44;17.32;86.38
69359;HTU21D;56520;49.066;8.660;2023-09-19T02:45:14;17.29;86.60
69359;HTU21D;56520;49.066;8.660;2023-09-19T02:47:42;17.28;86.74
69359;HTU21D;56520;49.066;8.660;2023-09-19T02:50:09;17.36;86.10
69359;HTU21D;56520;49.066;8.660;2023-09-19T02:52:36;17.33;86.22
69359;HTU21D;56520;49.066;8.660;2023-09-19T02:55:01;17.33;86.42
69359;HTU21D;56520;49.066;8.660;2023-09-19T02:57:28;17.33;86.43
69359;HTU21D;56520;49.066;8.660;2023-09-19T02:59:54;17.33;86.60
69359;HTU21D;56520;49.066;8.660;2023-09-19T03:02:20;17.32;86.53
69359;HTU21D;56520;49.066;8.660;2023-09-19T03:04:49;17.30;86.50
69359;HTU21D;56520;49.066;8.660;2023-09-19T03:07:16;17.28;86.71
69359;HTU21D;56520;49.066;8.660;2023-09-19T03:09:42;17.31;86.64
69359;HTU21D;56520;49.066;8.660;2023-09-19T03:12:08;17.25;86.83
69359;HTU21D;56520;49.066;8.660;2023-09-19T03:14:33;17.23;86.97
69359;HTU21D;56520;49.066;8.660;2023-09-19T03:17:00;17.21;87.09
69359;HTU21D;56520;49.066;8.660;2023-09-19T03:19:26;17.16;87.42
69359;HTU21D;56520;49.066;8.660;2023-09-19T03:21:52;17.11;87.44
69359;HTU21D;56520;49.066;8.660;2023-09-19T03:24:18;17.08;87.78
69359;HTU21D;56520;49.066;8.660;2023-09-19T03:26:44;17.08;87.84
69359;HTU21D;56520;49.066;8.660;2023-09-19T03:29:10;17.05;88.04
69359;HTU21D;56520;49.066;8.660;2023-09-19T03:31:36;17.01;88.23
69359;HTU21D;56520;49.066;8.660;2023-09-19T03:34:02;16.99;88.28
69359;HTU21D;56520;49.066;8.660;2023-09-19T03:36:29;17.04;87.99
69359;HTU21D;56520;49.066;8.660;2023-09-19T03:38:55;16.98;88.15
69359;HTU21D;56520;49.066;8.660;2023-09-19T03:41:20;16.92;88.53
69359;HTU21D;56520;49.066;8.660;2023-09-19T03:43:46;16.86;88.76
69359;HTU21D;56520;49.066;8.660;2023-09-19T03:46:11;16.82;88.91
69359;HTU21D;56520;49.066;8.660;2023-09-19T03:48:40;16.81;88.94
69359;HTU21D;56520;49.066;8.660;2023-09-19T03:51:05;16.77;89.04
69359;HTU21D;56520;49.066;8.660;2023-09-19T03:53:31;16.78;89.35
69359;HTU21D;56520;49.066;8.660;2023-09-19T03:55:56;16.78;89.50
69359;HTU21D;56520;49.066;8.660;2023-09-19T03:58:22;16.75;89.95
69359;HTU21D;56520;49.066;8.660;2023-09-19T04:00:48;16.73;89.92
69359;HTU21D;56520;49.066;8.660;2023-09-19T04:03:15;16.71;90.00
69359;HTU21D;56520;49.066;8.660;2023-09-19T04:05:45;16.66;90.02
69359;HTU21D;56520;49.066;8.660;2023-09-19T04:08:11;16.62;90.08
69359;HTU21D;56520;49.066;8.660;2023-09-19T04:10:37;16.60;90.18
69359;HTU21D;56520;49.066;8.660;2023-09-19T04:13:03;16.58;90.49
69359;HTU21D;56520;49.066;8.660;2023-09-19T04:15:29;16.59;90.65
69359;HTU21D;56520;49.066;8.660;2023-09-19T04:17:55;16.58;90.66
69359;HTU21D;56520;49.066;8.660;2023-09-19T04:20:20;16.57;90.89
69359;HTU21D;56520;49.066;8.660;2023-09-19T04:22:47;16.58;91.11
69359;HTU21D;56520;49.066;8.660;2023-09-19T04:25:12;16.60;91.24
69359;HTU21D;56520;49.066;8.660;2023-09-19T04:27:38;16.60;91.79
69359;HTU21D;56520;49.066;8.660;2023-09-19T04:30:05;16.60;91.56
69359;HTU21D;56520;49.066;8.660;2023-09-19T04:32:36;16.63;91.72
69359;HTU21D;56520;49.066;8.660;2023-09-19T04:35:05;16.63;91.64
69359;HTU21D;56520;49.066;8.660;2023-09-19T04:37:30;16.65;91.61
69359;HTU21D;56520;49.066;8.660;2023-09-19T04:39:56;16.65;91.53
69359;HTU21D;56520;49.066;8.660;2023-09-19T04:42:21;16.67;91.79
69359;HTU21D;56520;49.066;8.660;2023-09-19T04:44:47;16.65;92.50
69359;HTU21D;56520;49.066;8.660;2023-09-19T04:47:14;16.71;92.21
69359;HTU21D;56520;49.066;8.660;2023-09-19T04:49:41;16.69;92.11
69359;HTU21D;56520;49.066;8.660;2023-09-19T04:52:06;16.67;92.05
69359;HTU21D;56520;49.066;8.660;2023-09-19T04:54:32;16.67;92.15
69359;HTU21D;56520;49.066;8.660;2023-09-19T04:56:59;16.67;92.19
69359;HTU21D;56520;49.066;8.660;2023-09-19T04:59:25;16.69;92.46
69359;HTU21D;56520;49.066;8.660;2023-09-19T05:01:50;16.69;92.36
69359;HTU21D;56520;49.066;8.660;2023-09-19T05:04:16;16.69;92.39
69359;HTU21D;56520;49.066;8.660;2023-09-19T05:06:41;16.67;92.34
69359;HTU21D;56520;49.066;8.660;2023-09-19T05:09:07;16.69;92.37
69359;HTU21D;56520;49.066;8.660;2023-09-19T05:11:33;16.70;92.44
69359;HTU21D;56520;49.066;8.660;2023-09-19T05:13:59;16.70;92.62
69359;HTU21D;56520;49.066;8.660;2023-09-19T05:16:29;16.71;92.82
69359;HTU21D;56520;49.066;8.660;2023-09-19T05:18:57;16.71;92.70
69359;HTU21D;56520;49.066;8.660;2023-09-19T05:21:23;16.73;92.85
69359;HTU21D;56520;49.066;8.660;2023-09-19T05:23:51;16.72;92.92
69359;HTU21D;56520;49.066;8.660;2023-09-19T05:26:17;16.74;93.04
69359;HTU21D;56520;49.066;8.660;2023-09-19T05:28:43;16.75;92.82
69359;HTU21D;56520;49.066;8.660;2023-09-19T05:31:08;16.73;92.74
69359;HTU21D;56520;49.066;8.660;2023-09-19T05:33:34;16.82;92.33
69359;HTU21D;56520;49.066;8.660;2023-09-19T05:35:59;16.78;92.22
69359;HTU21D;56520;49.066;8.660;2023-09-19T05:38:25;16.79;92.34
69359;HTU21D;56520;49.066;8.660;2023-09-19T05:40:51;16.78;92.30
69359;HTU21D;56520;49.066;8.660;2023-09-19T05:43:17;16.77;92.25
69359;HTU21D;56520;49.066;8.660;2023-09-19T05:45:43;16.75;91.33
69359;HTU21D;56520;49.066;8.660;2023-09-19T05:48:12;16.75;91.08
69359;HTU21D;56520;49.066;8.660;2023-09-19T05:50:38;16.76;90.82
69359;HTU21D;56520;49.066;8.660;2023-09-19T05:53:04;16.76;90.64
69359;HTU21D;56520;49.066;8.660;2023-09-19T05:55:30;16.77;90.49
69359;HTU21D;56520;49.066;8.660;2023-09-19T05:57:55;16.74;90.64
69359;HTU21D;56520;49.066;8.660;2023-09-19T06:00:22;16.73;90.80
69359;HTU21D;56520;49.066;8.660;2023-09-19T06:02:55;16.75;90.54
69359;HTU21D;56520;49.066;8.660;2023-09-19T06:05:22;16.74;90.79
69359;HTU21D;56520;49.066;8.660;2023-09-19T06:07:48;16.76;90.39
69359;HTU21D;56520;49.066;8.660;2023-09-19T06:10:13;16.76;90.34
69359;HTU21D;56520;49.066;8.660;2023-09-19T06:12:41;16.76;90.54
69359;HTU21D;56520;49.066;8.660;2023-09-19T06:15:09;16.77;89.74
69359;HTU21D;56520;49.066;8.660;2023-09-19T06:17:38;16.78;90.02
69359;HTU21D;56520;49.066;8.660;2023-09-19T06:20:06;16.80;89.44
69359;HTU21D;56520;49.066;8.660;2023-09-19T06:22:38;16.81;89.15
69359;HTU21D;56520;49.066;8.660;2023-09-19T06:25:04;16.81;87.83
69359;HTU21D;56520;49.066;8.660;2023-09-19T06:27:29;16.81;88.18
69359;HTU21D;56520;49.066;8.660;2023-09-19T06:29:54;16.77;88.24
69359;HTU21D;56520;49.066;8.660;2023-09-19T06:32:27;16.76;88.63
69359;HTU21D;56520;49.066;8.660;2023-09-19T06:34:52;16.76;88.41
69359;HTU21D;56520;49.066;8.660;2023-09-19T06:37:20;16.74;88.28
69359;HTU21D;56520;49.066;8.660;2023-09-19T06:39:46;16.76;88.02
69359;HTU21D;56520;49.066;8.660;2023-09-19T06:42:13;16.72;87.91
69359;HTU21D;56520;49.066;8.660;2023-09-19T06:44:38;16.69;88.31
69359;HTU21D;56520;49.066;8.660;2023-09-19T06:47:04;16.66;88.24
69359;HTU21D;56520;49.066;8.660;2023-09-19T06:49:30;16.67;87.55
69359;HTU21D;56520;49.066;8.660;2023-09-19T06:51:56;16.69;86.86
69359;HTU21D;56520;49.066;8.660;2023-09-19T06:54:22;16.69;86.58
69359;HTU21D;56520;49.066;8.660;2023-09-19T06:56:48;16.65;86.93
69359;HTU21D;56520;49.066;8.660;2023-09-19T06:59:13;16.63;87.16
69359;HTU21D;56520;49.066;8.660;2023-09-19T07:01:40;16.64;86.99
69359;HTU21D;56520;49.066;8.660;2023-09-19T07:04:05;16.67;86.44
69359;HTU21D;56520;49.066;8.660;2023-09-19T07:06:30;16.71;86.12
69359;HTU21D;56520;49.066;8.660;2023-09-19T07:08:56;16.69;86.30
69359;HTU21D;56520;49.066;8.660;2023-09-19T07:11:21;16.69;86.75
69359;HTU21D;56520;49.066;8.660;2023-09-19T07:13:47;16.73;86.71
69359;HTU21D;56520;49.066;8.660;2023-09-19T07:16:13;16.74;86.90
69359;HTU21D;56520;49.066;8.660;2023-09-19T07:18:44;16.85;85.74
69359;HTU21D;56520;49.066;8.660;2023-09-19T07:21:10;16.88;85.90
69359;HTU21D;56520;49.066;8.660;2023-09-19T07:23:40;16.90;85.58
69359;HTU21D;56520;49.066;8.660;2023-09-19T07:26:05;16.92;84.61
69359;HTU21D;56520;49.066;8.660;2023-09-19T07:28:31;16.95;85.26
69359;HTU21D;56520;49.066;8.660;2023-09-19T07:31:01;17.02;85.79
69359;HTU21D;56520;49.066;8.660;2023-09-19T07:33:28;17.13;85.10
69359;HTU21D;56520;49.066;8.660;2023-09-19T07:35:53;17.22;85.16
69359;HTU21D;56520;49.066;8.660;2023-09-19T07:38:19;17.32;84.68
69359;HTU21D;56520;49.066;8.660;2023-09-19T07:40:45;17.44;85.08
69359;HTU21D;56520;49.066;8.660;2023-09-19T07:43:11;17.54;83.39
69359;HTU21D;56520;49.066;8.660;2023-09-19T07:45:36;17.63;84.05
69359;HTU21D;56520;49.066;8.660;2023-09-19T07:48:02;17.70;82.89
69359;HTU21D;56520;49.066;8.660;2023-09-19T07:50:29;17.76;83.18
69359;HTU21D;56520;49.066;8.660;2023-09-19T07:52:54;17.82;81.83
69359;HTU21D;56520;49.066;8.660;2023-09-19T07:55:21;17.87;81.19
69359;HTU21D;56520;49.066;8.660;2023-09-19T07:57:52;17.94;81.05
69359;HTU21D;56520;49.066;8.660;2023-09-19T08:00:18;18.06;78.46
69359;HTU21D;56520;49.066;8.660;2023-09-19T08:02:43;18.14;78.69
69359;HTU21D;56520;49.066;8.660;2023-09-19T08:05:10;18.17;80.03
69359;HTU21D;56520;49.066;8.660;2023-09-19T08:07:40;18.27;78.56
69359;HTU21D;56520;49.066;8.660;2023-09-19T08:10:07;18.34;77.12
69359;HTU21D;56520;49.066;8.660;2023-09-19T08:12:40;18.40;78.37
69359;HTU21D;56520;49.066;8.660;2023-09-19T08:15:15;18.46;77.78
69359;HTU21D;56520;49.066;8.660;2023-09-19T08:17:43;18.52;78.42
69359;HTU21D;56520;49.066;8.660;2023-09-19T08:20:10;18.61;77.02
69359;HTU21D;56520;49.066;8.660;2023-09-19T08:22:49;18.70;78.21
69359;HTU21D;56520;49.066;8.660;2023-09-19T08:25:17;18.70;75.65
69359;HTU21D;56520;49.066;8.660;2023-09-19T08:27:47;18.67;75.07
69359;HTU21D;56520;49.066;8.660;2023-09-19T08:30:21;18.65;73.43
69359;HTU21D;56520;49.066;8.660;2023-09-19T08:32:50;18.74;72.52
69359;HTU21D;56520;49.066;8.660;2023-09-19T08:35:16;18.81;72.67
69359;HTU21D;56520;49.066;8.660;2023-09-19T08:37:44;18.99;72.06
69359;HTU21D;56520;49.066;8.660;2023-09-19T08:40:13;19.22;69.10
69359;HTU21D;56520;49.066;8.660;2023-09-19T08:42:55;19.27;69.51
69359;HTU21D;56520;49.066;8.660;2023-09-19T08:45:22;19.35;68.48
69359;HTU21D;56520;49.066;8.660;2023-09-19T08:50:28;19.70;66.22
69359;HTU21D;56520;49.066;8.660;2023-09-19T08:52:55;19.77;67.78
69359;HTU21D;56520;49.066;8.660;2023-09-19T08:55:29;19.86;67.48
69359;HTU21D;56520;49.066;8.660;2023-09-19T08:58:04;20.05;66.41
69359;HTU21D;56520;49.066;8.660;2023-09-19T09:00:32;20.22;66.86
69359;HTU21D;56520;49.066;8.660;2023-09-19T09:02:59;20.28;65.52
69359;HTU21D;56520;49.066;8.660;2023-09-19T09:05:27;20.27;65.69
69359;HTU21D;56520;49.066;8.660;2023-09-19T09:07:54;20.24;64.56
69359;HTU21D;56520;49.066;8.660;2023-09-19T09:10:22;20.19;65.14
69359;HTU21D;56520;49.066;8.660;2023-09-19T09:12:49;20.06;65.91
69359;HTU21D;56520;49.066;8.660;2023-09-19T09:15:20;19.89;65.54
69359;HTU21D;56520;49.066;8.660;2023-09-19T09:17:48;19.73;66.30
69359;HTU21D;56520;49.066;8.660;2023-09-19T09:20:18;19.70;65.23
69359;HTU21D;56520;49.066;8.660;2023-09-19T09:22:56;19.68;66.33
69359;HTU21D;56520;49.066;8.660;2023-09-19T09:25:49;19.98;65.04
69359;HTU21D;56520;49.066;8.660;2023-09-19T09:28:24;20.09;64.87
69359;HTU21D;56520;49.066;8.660;2023-09-19T09:30:50;20.44;63.60
69359;HTU21D;56520;49.066;8.660;2023-09-19T09:33:17;20.81;59.41
69359;HTU21D;56520;49.066;8.660;2023-09-19T09:35:53;21.07;59.84
69359;HTU21D;56520;49.066;8.660;2023-09-19T09:38:22;21.29;59.86
69359;HTU21D;56520;49.066;8.660;2023-09-19T09:40:54;21.63;59.55
69359;HTU21D;56520;49.066;8.660;2023-09-19T09:43:34;22.01;56.33
69359;HTU21D;56520;49.066;8.660;2023-09-19T09:49:02;22.34;55.67
69359;HTU21D;56520;49.066;8.660;2023-09-19T09:52:00;22.56;53.21
69359;HTU21D;56520;49.066;8.660;2023-09-19T09:54:28;22.37;55.10
69359;HTU21D;56520;49.066;8.660;2023-09-19T09:57:03;22.31;54.81
69359;HTU21D;56520;49.066;8.660;2023-09-19T09:59:59;22.11;55.47
69359;HTU21D;56520;49.066;8.660;2023-09-19T10:02:46;21.82;55.58
69359;HTU21D;56520;49.066;8.660;2023-09-19T10:05:19;21.68;52.98
69359;HTU21D;56520;49.066;8.660;2023-09-19T10:07:46;21.50;54.04
69359;HTU21D;56520;49.066;8.660;2023-09-19T10:10:15;21.30;54.91
69359;HTU21D;56520;49.066;8.660;2023-09-19T10:12:55;21.43;56.51
69359;HTU21D;56520;49.066;8.660;2023-09-19T10:15:32;21.90;53.24
69359;HTU21D;56520;49.066;8.660;2023-09-19T10:18:00;22.07;53.72
69359;HTU21D;56520;49.066;8.660;2023-09-19T10:20:28;22.31;52.71
69359;HTU21D;56520;49.066;8.660;2023-09-19T10:23:01;22.50;52.01
69359;HTU21D;56520;49.066;8.660;2023-09-19T10:25:29;22.42;51.20
69359;HTU21D;56520;49.066;8.660;2023-09-19T10:27:57;22.08;52.62
69359;HTU21D;56520;49.066;8.660;2023-09-19T10:30:24;21.74;53.37
69359;HTU21D;56520;49.066;8.660;2023-09-19T10:33:01;21.42;54.71
69359;HTU21D;56520;49.066;8.660;2023-09-19T10:35:28;21.21;55.63
69359;HTU21D;56520;49.066;8.660;2023-09-19T10:37:57;21.05;56.07
69359;HTU21D;56520;49.066;8.660;2023-09-19T10:40:24;21.06;55.29
69359;HTU21D;56520;49.066;8.660;2023-09-19T10:43:05;21.08;55.64
69359;HTU21D;56520;49.066;8.660;2023-09-19T10:45:35;20.96;56.82
69359;HTU21D;56520;49.066;8.660;2023-09-19T10:48:01;20.77;57.52
69359;HTU21D;56520;49.066;8.660;2023-09-19T10:50:33;20.61;57.74
69359;HTU21D;56520;49.066;8.660;2023-09-19T10:53:04;20.54;57.11
69359;HTU21D;56520;49.066;8.660;2023-09-19T10:55:33;20.45;57.11
69359;HTU21D;56520;49.066;8.660;2023-09-19T10:58:01;20.31;57.41
69359;HTU21D;56520;49.066;8.660;2023-09-19T11:00:30;20.21;57.52
69359;HTU21D;56520;49.066;8.660;2023-09-19T11:05:38;20.37;57.67
69359;HTU21D;56520;49.066;8.660;2023-09-19T11:08:07;20.48;57.77
69359;HTU21D;56520;49.066;8.660;2023-09-19T11:10:50;20.56;57.92
69359;HTU21D;56520;49.066;8.660;2023-09-19T11:13:26;20.72;57.23
69359;HTU21D;56520;49.066;8.660;2023-09-19T11:26:43;22.70;53.07
69359;HTU21D;56520;49.066;8.660;2023-09-19T11:29:28;22.66;53.19
69359;HTU21D;56520;49.066;8.660;2023-09-19T11:31:55;22.60;53.00
69359;HTU21D;56520;49.066;8.660;2023-09-19T11:34:47;22.71;52.53
69359;HTU21D;56520;49.066;8.660;2023-09-19T11:40:10;22.78;52.40
69359;HTU21D;56520;49.066;8.660;2023-09-19T11:42:48;22.42;52.86
69359;HTU21D;56520;49.066;8.660;2023-09-19T11:48:15;22.37;54.07
69359;HTU21D;56520;49.066;8.660;2023-09-19T11:50:45;22.76;52.60
69359;HTU21D;56520;49.066;8.660;2023-09-19T11:53:14;23.14;52.97
69359;HTU21D;56520;49.066;8.660;2023-09-19T11:55:41;23.58;50.14
69359;HTU21D;56520;49.066;8.660;2023-09-19T11:58:20;23.68;49.55
69359;HTU21D;56520;49.066;8.660;2023-09-19T12:00:45;23.28;49.92
69359;HTU21D;56520;49.066;8.660;2023-09-19T12:03:12;22.86;52.11
69359;HTU21D;56520;49.066;8.660;2023-09-19T12:05:40;22.77;50.21
69359;HTU21D;56520;49.066;8.660;2023-09-19T12:08:05;22.69;49.39
69359;HTU21D;56520;49.066;8.660;2023-09-19T12:10:47;22.69;49.66
69359;HTU21D;56520;49.066;8.660;2023-09-19T12:13:16;22.80;50.21
69359;HTU21D;56520;49.066;8.660;2023-09-19T12:15:42;23.06;49.56
69359;HTU21D;56520;49.066;8.660;2023-09-19T12:18:25;23.24;48.76
69359;HTU21D;56520;49.066;8.660;2023-09-19T12:20:50;23.22;49.69
69359;HTU21D;56520;49.066;8.660;2023-09-19T12:23:17;23.01;50.34
69359;HTU21D;56520;49.066;8.660;2023-09-19T12:25:43;23.08;50.60
69359;HTU21D;56520;49.066;8.660;2023-09-19T12:28:12;23.17;50.16
69359;HTU21D;56520;49.066;8.660;2023-09-19T12:30:37;23.28;49.46
69359;HTU21D;56520;49.066;8.660;2023-09-19T12:33:17;23.30;50.02
69359;HTU21D;56520;49.066;8.660;2023-09-19T12:35:45;23.44;49.78
69359;HTU21D;56520;49.066;8.660;2023-09-19T12:38:10;23.65;50.69
69359;HTU21D;56520;49.066;8.660;2023-09-19T12:40:38;23.88;48.53
69359;HTU21D;56520;49.066;8.660;2023-09-19T12:43:07;24.03;49.02
69359;HTU21D;56520;49.066;8.660;2023-09-19T12:45:35;24.12;48.25
69359;HTU21D;56520;49.066;8.660;2023-09-19T12:48:24;24.13;47.83
69359;HTU21D;56520;49.066;8.660;2023-09-19T12:51:06;24.24;46.86
69359;HTU21D;56520;49.066;8.660;2023-09-19T12:53:33;24.32;47.66
69359;HTU21D;56520;49.066;8.660;2023-09-19T12:56:01;24.48;47.15
69359;HTU21D;56520;49.066;8.660;2023-09-19T12:58:28;24.75;45.42
69359;HTU21D;56520;49.066;8.660;2023-09-19T13:00:55;24.75;46.00
69359;HTU21D;56520;49.066;8.660;2023-09-19T13:06:03;24.70;45.73
69359;HTU21D;56520;49.066;8.660;2023-09-19T13:08:34;24.77;45.84
69359;HTU21D;56520;49.066;8.660;2023-09-19T13:11:06;24.94;45.14
69359;HTU21D;56520;49.066;8.660;2023-09-19T13:13:35;24.79;43.13
69359;HTU21D;56520;49.066;8.660;2023-09-19T13:16:02;24.58;45.06
69359;HTU21D;56520;49.066;8.660;2023-09-19T13:18:27;24.65;44.90
69359;HTU21D;56520;49.066;8.660;2023-09-19T13:21:08;24.76;45.61
69359;HTU21D;56520;49.066;8.660;2023-09-19T13:23:37;24.89;44.64
69359;HTU21D;56520;49.066;8.660;2023-09-19T13:26:03;24.94;44.50
69359;HTU21D;56520;49.066;8.660;2023-09-19T13:28:31;24.79;43.99
69359;HTU21D;56520;49.066;8.660;2023-09-19T13:30:56;24.53;44.87
69359;HTU21D;56520;49.066;8.660;2023-09-19T13:33:22;24.29;46.43
69359;HTU21D;56520;49.066;8.660;2023-09-19T13:35:47;24.10;45.88
69359;HTU21D;56520;49.066;8.660;2023-09-19T13:38:14;24.05;46.67
69359;HTU21D;56520;49.066;8.660;2023-09-19T13:40:40;24.20;45.88
69359;HTU21D;56520;49.066;8.660;2023-09-19T13:43:07;24.09;46.79
69359;HTU21D;56520;49.066;8.660;2023-09-19T13:45:33;24.16;46.70
69359;HTU21D;56520;49.066;8.660;2023-09-19T13:47:59;24.26;45.13
69359;HTU21D;56520;49.066;8.660;2023-09-19T13:50:25;24.12;44.73
69359;HTU21D;56520;49.066;8.660;2023-09-19T13:52:51;23.86;45.71
69359;HTU21D;56520;49.066;8.660;2023-09-19T13:55:19;23.73;45.85
69359;HTU21D;56520;49.066;8.660;2023-09-19T13:57:48;23.88;46.28
69359;HTU21D;56520;49.066;8.660;2023-09-19T14:00:20;24.00;46.51
69359;HTU21D;56520;49.066;8.660;2023-09-19T14:02:45;24.23;45.73
69359;HTU21D;56520;49.066;8.660;2023-09-19T14:05:12;24.29;45.96
69359;HTU21D;56520;49.066;8.660;2023-09-19T14:07:42;24.43;46.21
69359;HTU21D;56520;49.066;8.660;2023-09-19T14:10:09;24.60;44.97
69359;HTU21D;56520;49.066;8.660;2023-09-19T14:12:39;24.54;45.59
69359;HTU21D;56520;49.066;8.660;2023-09-19T14:15:08;24.58;43.80
69359;HTU21D;56520;49.066;8.660;2023-09-19T14:17:34;24.44;43.19
69359;HTU21D;56520;49.066;8.660;2023-09-19T14:19:59;24.12;44.77
69359;HTU21D;56520;49.066;8.660;2023-09-19T14:22:25;23.92;45.38
69359;HTU21D;56520;49.066;8.660;2023-09-19T14:24:50;23.79;45.61
69359;HTU21D;56520;49.066;8.660;2023-09-19T14:27:17;23.59;45.49
69359;HTU21D;56520;49.066;8.660;2023-09-19T14:29:42;23.52;45.89
69359;HTU21D;56520;49.066;8.660;2023-09-19T14:32:07;23.42;46.52
69359;HTU21D;56520;49.066;8.660;2023-09-19T14:34:33;23.34;46.51
69359;HTU21D;56520;49.066;8.660;2023-09-19T14:36:59;23.29;46.93
69359;HTU21D;56520;49.066;8.660;2023-09-19T14:39:24;23.31;47.32
69359;HTU21D;56520;49.066;8.660;2023-09-19T14:41:50;23.40;47.44
69359;HTU21D;56520;49.066;8.660;2023-09-19T14:44:15;23.46;47.37
69359;HTU21D;56520;49.066;8.660;2023-09-19T14:46:41;23.46;47.02
69359;HTU21D;56520;49.066;8.660;2023-09-19T14:49:08;23.37;46.73
69359;HTU21D;56520;49.066;8.660;2023-09-19T14:51:35;23.36;46.57
69359;HTU21D;56520;49.066;8.660;2023-09-19T14:54:00;23.54;46.29
69359;HTU21D;56520;49.066;8.660;2023-09-19T14:56:27;23.58;46.93
69359;HTU21D;56520;49.066;8.660;2023-09-19T14:58:55;23.53;46.54
69359;HTU21D;56520;49.066;8.660;2023-09-19T15:01:20;23.39;46.66
69359;HTU21D;56520;49.066;8.660;2023-09-19T15:03:47;23.28;47.09
69359;HTU21D;56520;49.066;8.660;2023-09-19T15:06:14;23.32;46.97
69359;HTU21D;56520;49.066;8.660;2023-09-19T15:08:40;23.42;47.03
69359;HTU21D;56520;49.066;8.660;2023-09-19T15:11:08;23.53;45.85
69359;HTU21D;56520;49.066;8.660;2023-09-19T15:13:35;23.54;45.93
69359;HTU21D;56520;49.066;8.660;2023-09-19T15:16:05;23.32;46.50
69359;HTU21D;56520;49.066;8.660;2023-09-19T15:18:34;23.30;46.13
69359;HTU21D;56520;49.066;8.660;2023-09-19T15:21:10;23.31;46.68
69359;HTU21D;56520;49.066;8.660;2023-09-19T15:23:37;23.32;47.02
69359;HTU21D;56520;49.066;8.660;2023-09-19T15:26:07;23.35;46.70
69359;HTU21D;56520;49.066;8.660;2023-09-19T15:28:37;23.28;47.00
69359;HTU21D;56520;49.066;8.660;2023-09-19T15:31:11;23.24;47.05
69359;HTU21D;56520;49.066;8.660;2023-09-19T15:33:37;23.17;47.63
69359;HTU21D;56520;49.066;8.660;2023-09-19T15:36:07;23.14;46.83
69359;HTU21D;56520;49.066;8.660;2023-09-19T15:41:22;22.96;47.67
69359;HTU21D;56520;49.066;8.660;2023-09-19T15:43:48;22.92;47.12
69359;HTU21D;56520;49.066;8.660;2023-09-19T15:46:13;22.82;48.09
69359;HTU21D;56520;49.066;8.660;2023-09-19T15:48:40;22.70;47.56
69359;HTU21D;56520;49.066;8.660;2023-09-19T15:51:06;22.61;48.46
69359;HTU21D;56520;49.066;8.660;2023-09-19T15:53:45;22.57;48.32
69359;HTU21D;56520;49.066;8.660;2023-09-19T15:56:10;22.53;48.71
69359;HTU21D;56520;49.066;8.660;2023-09-19T15:58:37;22.46;49.08
69359;HTU21D;56520;49.066;8.660;2023-09-19T16:01:05;22.41;49.39
69359;HTU21D;56520;49.066;8.660;2023-09-19T16:03:38;22.34;49.49
69359;HTU21D;56520;49.066;8.660;2023-09-19T16:06:10;22.28;49.95
69359;HTU21D;56520;49.066;8.660;2023-09-19T16:08:45;22.22;49.89
69359;HTU21D;56520;49.066;8.660;2023-09-19T16:11:10;22.16;50.36
69359;HTU21D;56520;49.066;8.660;2023-09-19T16:13:37;22.09;50.85
69359;HTU21D;56520;49.066;8.660;2023-09-19T16:16:02;22.08;50.85